KG-0009 weather

CLOSED Frunze Airport
Bishkek, Chuy Region, Kyrgyzstan

Public forecast

Using degrees Celsius for public forecast. Weather courtesy of forecast.io.

Closest aviation weather report (METAR) to Frunze Airport

Closest report is Manas International Airport, 14.3 nm (26.5 km) NNW. Retrieved 2020/02/23 11:00 UTC (15 minutes ago):

UCFM 231100Z 33002MPS 290V350 9999 FEW050CB 07/01 Q1022 R08/0///95 NOSIG

Closest aviation forecast (TAF) to Frunze Airport

Closest forecast is Manas International Airport, 14.3 nm (26.5 km) NNW. Retrieved 2020/02/23 06:00 UTC (5 hours ago):

TAF UCFM 230444Z 2306/2406 27003G08MPS 6000 SCT010 BKN030CB TEMPO 2306/2312 2000 BR FU BKN006 BECMG 2312/2314 14003G08MPS 3000 BR TEMPO 2318/2403 0600 FZFG FU BKN003